EWG1DB LOWK-EDDP
Flight info
| Callsign | EWG1DB |
|---|---|
| Flight time | 0h 57m |
| Altitude | 38000 |
| Route | INGID DCT LAMSI L604 ANELA M726 LASGA T953 VOCIM T954 GOXLI GOXLI1R |
| Aircraft | A319/M-SDE3FGHIRWY/LB1 |
Departure
| Time | 2026-05-06 16:59 |
|---|---|
| Airport | Klagenfurt Airport (LOWK) |
Arrival
| Time | 2026-05-06 17:57 |
|---|---|
| Airport | Leipzig/Halle Airport (EDDP) |
| Time | Latitude | Longitude | Altitude | Speed | Heading |
|---|---|---|---|---|---|
| 2026-05-06 16:51 | 46.64746 | 14.32567 | 1505 ft | 0 kts | 75° |
| 2026-05-06 16:55 | 46.64753 | 14.32608 | 1505 ft | 10 kts | 78° |
| 2026-05-06 16:55 | 46.64710 | 14.32690 | 1504 ft | 11 kts | 143° |
| 2026-05-06 16:55 | 46.64660 | 14.32652 | 1504 ft | 10 kts | 259° |
| 2026-05-06 16:56 | 46.64673 | 14.32555 | 1504 ft | 8 kts | 270° |
| 2026-05-06 16:56 | 46.64649 | 14.32497 | 1504 ft | 0 kts | 237° |
| 2026-05-06 16:58 | 46.64637 | 14.32472 | 1504 ft | 5 kts | 234° |
| 2026-05-06 16:58 | 46.64603 | 14.32441 | 1504 ft | 6 kts | 200° |
| 2026-05-06 16:58 | 46.64556 | 14.32424 | 1504 ft | 6 kts | 184° |
| 2026-05-06 16:58 | 46.64513 | 14.32483 | 1503 ft | 19 kts | 112° |
| 2026-05-06 16:59 | 46.64390 | 14.33066 | 1499 ft | 103 kts | 104° |
| 2026-05-06 16:59 | 46.64115 | 14.34404 | 1624 ft | 163 kts | 109° |
| 2026-05-06 16:59 | 46.63759 | 14.36130 | 1973 ft | 186 kts | 108° |
| 2026-05-06 16:59 | 46.63375 | 14.38035 | 2259 ft | 211 kts | 108° |
| 2026-05-06 17:00 | 46.62938 | 14.40202 | 2468 ft | 240 kts | 107° |
| 2026-05-06 17:00 | 46.62433 | 14.42692 | 2876 ft | 269 kts | 107° |
| 2026-05-06 17:00 | 46.61955 | 14.45315 | 4015 ft | 270 kts | 98° |
| 2026-05-06 17:00 | 46.62131 | 14.47949 | 5100 ft | 275 kts | 70° |
| 2026-05-06 17:01 | 46.63208 | 14.50287 | 5956 ft | 288 kts | 40° |
| 2026-05-06 17:01 | 46.64991 | 14.51613 | 6816 ft | 294 kts | 8° |
| 2026-05-06 17:01 | 46.66976 | 14.51496 | 7708 ft | 290 kts | 336° |
| 2026-05-06 17:01 | 46.68650 | 14.50015 | 8609 ft | 282 kts | 308° |
| 2026-05-06 17:02 | 46.69977 | 14.47963 | 9549 ft | 283 kts | 305° |
| 2026-05-06 17:02 | 46.71310 | 14.45871 | 10399 ft | 289 kts | 306° |
| 2026-05-06 17:02 | 46.72715 | 14.43683 | 10911 ft | 306 kts | 306° |
| 2026-05-06 17:02 | 46.74239 | 14.41357 | 11377 ft | 323 kts | 307° |
| 2026-05-06 17:03 | 46.75810 | 14.38991 | 12089 ft | 331 kts | 308° |
| 2026-05-06 17:03 | 46.77416 | 14.36596 | 12888 ft | 335 kts | 308° |
| 2026-05-06 17:03 | 46.79054 | 14.34151 | 13642 ft | 340 kts | 307° |
| 2026-05-06 17:03 | 46.80698 | 14.31690 | 14352 ft | 345 kts | 307° |
| 2026-05-06 17:04 | 46.82378 | 14.29169 | 15122 ft | 349 kts | 308° |
| 2026-05-06 17:04 | 46.84130 | 14.26703 | 15866 ft | 354 kts | 311° |
| 2026-05-06 17:04 | 46.85927 | 14.24272 | 16582 ft | 358 kts | 311° |
| 2026-05-06 17:04 | 46.87757 | 14.21812 | 17311 ft | 361 kts | 311° |
| 2026-05-06 17:05 | 46.89626 | 14.19298 | 18019 ft | 364 kts | 311° |
| 2026-05-06 17:05 | 46.91488 | 14.16789 | 18714 ft | 367 kts | 312° |
| 2026-05-06 17:05 | 46.93343 | 14.14285 | 19370 ft | 370 kts | 312° |
| 2026-05-06 17:05 | 46.95232 | 14.11732 | 19996 ft | 374 kts | 312° |
| 2026-05-06 17:06 | 46.97161 | 14.09117 | 20616 ft | 378 kts | 312° |
| 2026-05-06 17:06 | 46.99086 | 14.06509 | 21225 ft | 382 kts | 312° |
| 2026-05-06 17:06 | 47.01053 | 14.03838 | 21824 ft | 386 kts | 312° |
| 2026-05-06 17:06 | 47.03001 | 14.01187 | 22384 ft | 390 kts | 312° |
| 2026-05-06 17:07 | 47.05004 | 13.98458 | 22923 ft | 394 kts | 313° |
| 2026-05-06 17:07 | 47.07017 | 13.95716 | 23452 ft | 398 kts | 313° |
| 2026-05-06 17:07 | 47.09038 | 13.92963 | 24009 ft | 401 kts | 312° |
| 2026-05-06 17:07 | 47.11095 | 13.90160 | 24555 ft | 404 kts | 312° |
| 2026-05-06 17:08 | 47.13155 | 13.87350 | 25098 ft | 406 kts | 311° |
| 2026-05-06 17:08 | 47.15194 | 13.84559 | 25636 ft | 408 kts | 311° |
| 2026-05-06 17:08 | 47.17279 | 13.81705 | 26183 ft | 409 kts | 311° |
| 2026-05-06 17:08 | 47.19356 | 13.78859 | 26700 ft | 411 kts | 311° |
| 2026-05-06 17:09 | 47.21454 | 13.75973 | 27194 ft | 414 kts | 311° |
| 2026-05-06 17:09 | 47.23550 | 13.73098 | 27685 ft | 416 kts | 311° |
| 2026-05-06 17:09 | 47.25909 | 13.70510 | 28146 ft | 428 kts | 324° |
| 2026-05-06 17:09 | 47.28650 | 13.68792 | 28575 ft | 442 kts | 338° |
| 2026-05-06 17:10 | 47.31752 | 13.68022 | 28979 ft | 454 kts | 350° |
| 2026-05-06 17:10 | 47.34885 | 13.67768 | 29409 ft | 458 kts | 352° |
| 2026-05-06 17:10 | 47.38063 | 13.67587 | 29816 ft | 461 kts | 353° |
| 2026-05-06 17:10 | 47.41302 | 13.67407 | 30194 ft | 464 kts | 352° |
| 2026-05-06 17:11 | 47.44510 | 13.67213 | 30554 ft | 467 kts | 352° |
| 2026-05-06 17:11 | 47.47733 | 13.67003 | 30910 ft | 470 kts | 352° |
| 2026-05-06 17:11 | 47.51016 | 13.66779 | 31293 ft | 472 kts | 352° |
| 2026-05-06 17:11 | 47.54291 | 13.66549 | 31711 ft | 473 kts | 352° |
| 2026-05-06 17:12 | 47.57610 | 13.66312 | 32196 ft | 472 kts | 352° |
| 2026-05-06 17:12 | 47.60849 | 13.66080 | 32706 ft | 471 kts | 352° |
| 2026-05-06 17:12 | 47.64107 | 13.65846 | 33157 ft | 471 kts | 352° |
| 2026-05-06 17:12 | 47.67376 | 13.65607 | 33597 ft | 470 kts | 352° |
| 2026-05-06 17:13 | 47.70630 | 13.65371 | 34018 ft | 470 kts | 352° |
| 2026-05-06 17:13 | 47.73873 | 13.65137 | 34438 ft | 470 kts | 351° |
| 2026-05-06 17:13 | 47.77149 | 13.64899 | 34834 ft | 469 kts | 352° |
| 2026-05-06 17:13 | 47.80405 | 13.64660 | 35201 ft | 468 kts | 352° |
| 2026-05-06 17:14 | 47.83626 | 13.64421 | 35533 ft | 467 kts | 352° |
| 2026-05-06 17:14 | 47.86869 | 13.64181 | 35866 ft | 467 kts | 352° |
| 2026-05-06 17:14 | 47.90110 | 13.63945 | 36187 ft | 466 kts | 352° |
| 2026-05-06 17:14 | 47.93323 | 13.63708 | 36443 ft | 467 kts | 352° |
| 2026-05-06 17:15 | 47.96556 | 13.63469 | 36707 ft | 468 kts | 352° |
| 2026-05-06 17:15 | 47.99814 | 13.63230 | 36975 ft | 469 kts | 352° |
| 2026-05-06 17:15 | 48.03066 | 13.62990 | 37299 ft | 470 kts | 352° |
| 2026-05-06 17:15 | 48.06348 | 13.62749 | 37574 ft | 471 kts | 353° |
| 2026-05-06 17:16 | 48.09609 | 13.62507 | 37717 ft | 473 kts | 353° |
| 2026-05-06 17:16 | 48.16187 | 13.62022 | 37732 ft | 475 kts | 353° |
| 2026-05-06 17:17 | 48.22773 | 13.61538 | 37712 ft | 475 kts | 352° |
| 2026-05-06 17:17 | 48.29379 | 13.61044 | 37733 ft | 476 kts | 352° |
| 2026-05-06 17:18 | 48.35976 | 13.60548 | 37737 ft | 476 kts | 353° |
| 2026-05-06 17:18 | 48.42606 | 13.60053 | 37735 ft | 476 kts | 352° |
| 2026-05-06 17:19 | 48.49196 | 13.59556 | 37722 ft | 477 kts | 353° |
| 2026-05-06 17:19 | 48.55794 | 13.59059 | 37729 ft | 476 kts | 352° |
| 2026-05-06 17:20 | 48.62225 | 13.57283 | 37724 ft | 465 kts | 336° |
| 2026-05-06 17:20 | 48.67987 | 13.53237 | 37723 ft | 454 kts | 321° |
| 2026-05-06 17:21 | 48.72825 | 13.47326 | 37729 ft | 445 kts | 309° |
| 2026-05-06 17:21 | 48.77184 | 13.40682 | 37714 ft | 445 kts | 308° |
| 2026-05-06 17:22 | 48.81545 | 13.34025 | 37688 ft | 446 kts | 308° |
| 2026-05-06 17:22 | 48.85921 | 13.27392 | 37697 ft | 446 kts | 308° |
| 2026-05-06 17:23 | 48.90294 | 13.20770 | 37694 ft | 447 kts | 308° |
| 2026-05-06 17:23 | 48.94694 | 13.14078 | 37700 ft | 449 kts | 308° |
| 2026-05-06 17:24 | 48.99099 | 13.07362 | 37718 ft | 448 kts | 308° |
| 2026-05-06 17:24 | 49.03486 | 13.00653 | 37726 ft | 449 kts | 308° |
| 2026-05-06 17:25 | 49.07874 | 12.93923 | 37708 ft | 450 kts | 308° |
| 2026-05-06 17:25 | 49.12280 | 12.87156 | 37726 ft | 450 kts | 308° |
| 2026-05-06 17:26 | 49.16694 | 12.80348 | 37721 ft | 451 kts | 309° |
| 2026-05-06 17:26 | 49.21094 | 12.73555 | 37729 ft | 452 kts | 309° |
| 2026-05-06 17:27 | 49.25490 | 12.66746 | 37733 ft | 453 kts | 309° |
| 2026-05-06 17:27 | 49.29741 | 12.59679 | 37731 ft | 449 kts | 303° |
| 2026-05-06 17:28 | 49.33270 | 12.51948 | 37726 ft | 442 kts | 295° |
| 2026-05-06 17:28 | 49.36024 | 12.43606 | 37748 ft | 437 kts | 287° |
| 2026-05-06 17:29 | 49.38141 | 12.34922 | 37748 ft | 434 kts | 283° |
| 2026-05-06 17:29 | 49.40165 | 12.26240 | 37773 ft | 436 kts | 283° |
| 2026-05-06 17:30 | 49.42205 | 12.17502 | 37756 ft | 434 kts | 284° |
| 2026-05-06 17:30 | 49.44230 | 12.08819 | 37753 ft | 436 kts | 284° |
| 2026-05-06 17:31 | 49.46270 | 12.00038 | 37747 ft | 437 kts | 284° |
| 2026-05-06 17:31 | 49.48290 | 11.91307 | 37773 ft | 437 kts | 284° |
| 2026-05-06 17:32 | 49.50314 | 11.82515 | 37770 ft | 437 kts | 284° |
| 2026-05-06 17:32 | 49.52310 | 11.73783 | 37783 ft | 436 kts | 284° |
| 2026-05-06 17:33 | 49.54394 | 11.64981 | 37769 ft | 439 kts | 288° |
| 2026-05-06 17:33 | 49.57120 | 11.56572 | 37769 ft | 444 kts | 295° |
| 2026-05-06 17:34 | 49.60624 | 11.48735 | 37771 ft | 450 kts | 303° |
| 2026-05-06 17:34 | 49.64856 | 11.41537 | 37762 ft | 455 kts | 310° |
| 2026-05-06 17:35 | 49.69290 | 11.34613 | 37773 ft | 454 kts | 309° |
| 2026-05-06 17:35 | 49.74030 | 11.28252 | 37491 ft | 458 kts | 322° |
| 2026-05-06 17:36 | 49.79870 | 11.23958 | 36124 ft | 481 kts | 339° |
| 2026-05-06 17:36 | 49.83167 | 11.22797 | 35408 ft | 489 kts | 347° |
| 2026-05-06 17:36 | 49.86538 | 11.22376 | 34730 ft | 495 kts | 355° |
| 2026-05-06 17:36 | 49.89996 | 11.22366 | 34007 ft | 499 kts | 357° |
| 2026-05-06 17:37 | 49.93464 | 11.22452 | 33236 ft | 501 kts | 358° |
| 2026-05-06 17:37 | 49.96908 | 11.22538 | 32475 ft | 502 kts | 358° |
| 2026-05-06 17:37 | 50.00404 | 11.22600 | 31991 ft | 496 kts | 359° |
| 2026-05-06 17:37 | 50.03810 | 11.22642 | 31771 ft | 486 kts | 358° |
| 2026-05-06 17:38 | 50.10555 | 11.22699 | 31767 ft | 487 kts | 358° |
| 2026-05-06 17:38 | 50.13941 | 11.22722 | 31614 ft | 483 kts | 358° |
| 2026-05-06 17:38 | 50.17263 | 11.22737 | 30868 ft | 487 kts | 359° |
| 2026-05-06 17:39 | 50.20700 | 11.22751 | 29781 ft | 494 kts | 359° |
| 2026-05-06 17:39 | 50.24092 | 11.22769 | 29060 ft | 492 kts | 359° |
| 2026-05-06 17:39 | 50.27520 | 11.22789 | 28522 ft | 485 kts | 359° |
| 2026-05-06 17:39 | 50.30812 | 11.22808 | 27977 ft | 478 kts | 359° |
| 2026-05-06 17:40 | 50.34149 | 11.22828 | 27413 ft | 472 kts | 358° |
| 2026-05-06 17:40 | 50.37387 | 11.22762 | 26859 ft | 466 kts | 356° |
| 2026-05-06 17:40 | 50.40581 | 11.22551 | 26308 ft | 460 kts | 355° |
| 2026-05-06 17:40 | 50.43770 | 11.22298 | 25742 ft | 455 kts | 354° |
| 2026-05-06 17:41 | 50.46893 | 11.22044 | 25197 ft | 449 kts | 355° |
| 2026-05-06 17:41 | 50.49984 | 11.21802 | 24656 ft | 443 kts | 355° |
| 2026-05-06 17:41 | 50.53004 | 11.21572 | 24116 ft | 437 kts | 355° |
| 2026-05-06 17:41 | 50.56037 | 11.21344 | 23576 ft | 432 kts | 354° |
| 2026-05-06 17:42 | 50.58989 | 11.21125 | 23029 ft | 427 kts | 355° |
| 2026-05-06 17:42 | 50.61962 | 11.21046 | 22447 ft | 424 kts | 2° |
| 2026-05-06 17:42 | 50.64844 | 11.21878 | 21869 ft | 423 kts | 15° |
| 2026-05-06 17:42 | 50.67557 | 11.23564 | 21111 ft | 426 kts | 23° |
| 2026-05-06 17:43 | 50.70237 | 11.25534 | 20296 ft | 428 kts | 24° |
| 2026-05-06 17:43 | 50.72901 | 11.27541 | 19481 ft | 424 kts | 24° |
| 2026-05-06 17:43 | 50.75571 | 11.29543 | 18678 ft | 426 kts | 24° |
| 2026-05-06 17:43 | 50.78239 | 11.31525 | 17896 ft | 427 kts | 24° |
| 2026-05-06 17:44 | 50.80893 | 11.33485 | 17124 ft | 428 kts | 24° |
| 2026-05-06 17:44 | 50.83591 | 11.35470 | 16337 ft | 428 kts | 24° |
| 2026-05-06 17:44 | 50.86283 | 11.37449 | 15570 ft | 427 kts | 24° |
| 2026-05-06 17:44 | 50.88958 | 11.39415 | 14809 ft | 426 kts | 24° |
| 2026-05-06 17:45 | 50.91631 | 11.41382 | 14030 ft | 425 kts | 23° |
| 2026-05-06 17:45 | 50.94355 | 11.43143 | 13423 ft | 418 kts | 18° |
| 2026-05-06 17:45 | 50.97041 | 11.44557 | 13122 ft | 394 kts | 16° |
| 2026-05-06 17:45 | 50.99562 | 11.45836 | 12653 ft | 368 kts | 16° |
| 2026-05-06 17:46 | 51.01906 | 11.47034 | 12139 ft | 351 kts | 16° |
| 2026-05-06 17:46 | 51.04214 | 11.48232 | 11557 ft | 349 kts | 16° |
| 2026-05-06 17:46 | 51.06507 | 11.49436 | 10977 ft | 350 kts | 16° |
| 2026-05-06 17:46 | 51.08816 | 11.50662 | 10545 ft | 347 kts | 17° |
| 2026-05-06 17:47 | 51.11081 | 11.51873 | 10235 ft | 341 kts | 17° |
| 2026-05-06 17:47 | 51.13286 | 11.53058 | 9917 ft | 323 kts | 17° |
| 2026-05-06 17:47 | 51.15349 | 11.54170 | 9476 ft | 307 kts | 17° |
| 2026-05-06 17:47 | 51.17326 | 11.55234 | 9062 ft | 301 kts | 17° |
| 2026-05-06 17:48 | 51.19309 | 11.56301 | 8722 ft | 299 kts | 17° |
| 2026-05-06 17:48 | 51.21288 | 11.57367 | 8279 ft | 301 kts | 17° |
| 2026-05-06 17:48 | 51.23248 | 11.58425 | 8016 ft | 296 kts | 17° |
| 2026-05-06 17:48 | 51.25163 | 11.59460 | 7713 ft | 293 kts | 17° |
| 2026-05-06 17:49 | 51.27125 | 11.60522 | 7294 ft | 295 kts | 17° |
| 2026-05-06 17:49 | 51.29034 | 11.61555 | 7034 ft | 290 kts | 17° |
| 2026-05-06 17:49 | 51.30924 | 11.62580 | 6788 ft | 286 kts | 17° |
| 2026-05-06 17:49 | 51.32786 | 11.63593 | 6439 ft | 277 kts | 17° |
| 2026-05-06 17:50 | 51.34595 | 11.64576 | 5893 ft | 272 kts | 17° |
| 2026-05-06 17:50 | 51.36358 | 11.65533 | 5504 ft | 267 kts | 18° |
| 2026-05-06 17:50 | 51.38109 | 11.66485 | 5271 ft | 262 kts | 18° |
| 2026-05-06 17:50 | 51.39696 | 11.67732 | 5146 ft | 253 kts | 42° |
| 2026-05-06 17:51 | 51.40629 | 11.70051 | 4944 ft | 249 kts | 75° |
| 2026-05-06 17:51 | 51.40832 | 11.72769 | 4741 ft | 244 kts | 86° |
| 2026-05-06 17:51 | 51.40922 | 11.75466 | 4534 ft | 240 kts | 86° |
| 2026-05-06 17:51 | 51.41023 | 11.78111 | 4333 ft | 237 kts | 85° |
| 2026-05-06 17:52 | 51.41140 | 11.80741 | 4165 ft | 233 kts | 85° |
| 2026-05-06 17:52 | 51.41262 | 11.83293 | 3964 ft | 231 kts | 85° |
| 2026-05-06 17:52 | 51.41390 | 11.85863 | 3748 ft | 230 kts | 84° |
| 2026-05-06 17:52 | 51.41517 | 11.88406 | 3543 ft | 228 kts | 84° |
| 2026-05-06 17:53 | 51.41642 | 11.90908 | 3339 ft | 226 kts | 84° |
| 2026-05-06 17:53 | 51.41765 | 11.93404 | 3181 ft | 222 kts | 84° |
| 2026-05-06 17:53 | 51.41895 | 11.95808 | 3051 ft | 216 kts | 82° |
| 2026-05-06 17:53 | 51.42053 | 11.98170 | 3023 ft | 206 kts | 83° |
| 2026-05-06 17:54 | 51.42180 | 12.00386 | 3005 ft | 194 kts | 83° |
| 2026-05-06 17:54 | 51.42279 | 12.02490 | 2795 ft | 190 kts | 84° |
| 2026-05-06 17:54 | 51.42371 | 12.04610 | 2518 ft | 189 kts | 84° |
| 2026-05-06 17:54 | 51.42459 | 12.06682 | 2254 ft | 188 kts | 83° |
| 2026-05-06 17:55 | 51.42549 | 12.08781 | 1994 ft | 186 kts | 83° |
| 2026-05-06 17:55 | 51.42639 | 12.10833 | 1748 ft | 184 kts | 83° |
| 2026-05-06 17:55 | 51.42730 | 12.12847 | 1507 ft | 182 kts | 83° |
| 2026-05-06 17:55 | 51.42820 | 12.14866 | 1270 ft | 180 kts | 83° |
| 2026-05-06 17:56 | 51.42909 | 12.16857 | 1036 ft | 177 kts | 83° |
| 2026-05-06 17:56 | 51.42992 | 12.18717 | 819 ft | 164 kts | 83° |
| 2026-05-06 17:56 | 51.43074 | 12.20509 | 592 ft | 155 kts | 83° |
| 2026-05-06 17:56 | 51.43151 | 12.22193 | 417 ft | 144 kts | 83° |
| 2026-05-06 17:57 | 51.43219 | 12.23521 | 418 ft | 96 kts | 86° |
| 2026-05-06 17:57 | 51.43250 | 12.24324 | 426 ft | 46 kts | 93° |
| 2026-05-06 17:57 | 51.43175 | 12.24729 | 432 ft | 35 kts | 115° |
| 2026-05-06 17:57 | 51.43074 | 12.25064 | 435 ft | 28 kts | 116° |
| 2026-05-06 17:58 | 51.42960 | 12.25280 | 437 ft | 24 kts | 179° |
| 2026-05-06 17:58 | 51.42798 | 12.25213 | 438 ft | 23 kts | 194° |
| 2026-05-06 17:58 | 51.42647 | 12.25155 | 441 ft | 21 kts | 193° |
| 2026-05-06 17:58 | 51.42508 | 12.25103 | 445 ft | 19 kts | 193° |
| 2026-05-06 17:59 | 51.42387 | 12.25056 | 451 ft | 16 kts | 193° |
| 2026-05-06 17:59 | 51.42287 | 12.25017 | 455 ft | 14 kts | 193° |
| 2026-05-06 17:59 | 51.42148 | 12.24966 | 458 ft | 22 kts | 194° |
| 2026-05-06 17:59 | 51.42000 | 12.24903 | 461 ft | 20 kts | 193° |
| 2026-05-06 18:00 | 51.41866 | 12.24855 | 463 ft | 19 kts | 192° |
| 2026-05-06 18:00 | 51.41733 | 12.24805 | 461 ft | 20 kts | 193° |
| 2026-05-06 18:00 | 51.41659 | 12.24635 | 457 ft | 21 kts | 265° |
| 2026-05-06 18:00 | 51.41649 | 12.24387 | 454 ft | 22 kts | 267° |
| 2026-05-06 18:01 | 51.41637 | 12.24143 | 457 ft | 21 kts | 265° |
| 2026-05-06 18:01 | 51.41629 | 12.23918 | 459 ft | 19 kts | 265° |
| 2026-05-06 18:01 | 51.41618 | 12.23703 | 460 ft | 19 kts | 265° |
| 2026-05-06 18:01 | 51.41608 | 12.23488 | 460 ft | 19 kts | 266° |
| 2026-05-06 18:02 | 51.41598 | 12.23281 | 462 ft | 18 kts | 270° |
| 2026-05-06 18:02 | 51.41625 | 12.23080 | 461 ft | 18 kts | 284° |
| 2026-05-06 18:02 | 51.41660 | 12.22879 | 461 ft | 18 kts | 287° |
| 2026-05-06 18:02 | 51.41697 | 12.22667 | 458 ft | 20 kts | 284° |
| 2026-05-06 18:03 | 51.41734 | 12.22450 | 456 ft | 21 kts | 285° |
| 2026-05-06 18:03 | 51.41779 | 12.22201 | 446 ft | 25 kts | 283° |
| 2026-05-06 18:03 | 51.41809 | 12.22000 | 436 ft | 14 kts | 284° |
| 2026-05-06 18:03 | 51.41856 | 12.21925 | 433 ft | 7 kts | 19° |
| 2026-05-06 18:04 | 51.41895 | 12.21944 | 434 ft | 5 kts | 16° |
| 2026-05-06 18:04 | 51.41917 | 12.21953 | 434 ft | 0 kts | 14° |